sensor_id;sensor_type;location;lat;lon;timestamp;P1;durP1;ratioP1;P2;durP2;ratioP2
64609;SDS011;51019;46.090;6.350;2023-05-24T00:01:35;23.77;;;13.02;;
64609;SDS011;51019;46.090;6.350;2023-05-24T00:04:10;24.60;;;13.50;;
64609;SDS011;51019;46.090;6.350;2023-05-24T00:06:43;24.05;;;13.75;;
64609;SDS011;51019;46.090;6.350;2023-05-24T00:09:14;24.67;;;11.88;;
64609;SDS011;51019;46.090;6.350;2023-05-24T00:11:41;22.88;;;12.23;;
64609;SDS011;51019;46.090;6.350;2023-05-24T00:14:12;22.92;;;13.73;;
64609;SDS011;51019;46.090;6.350;2023-05-24T00:16:46;23.60;;;12.05;;
64609;SDS011;51019;46.090;6.350;2023-05-24T00:19:16;23.27;;;12.20;;
64609;SDS011;51019;46.090;6.350;2023-05-24T00:21:52;24.47;;;12.97;;
64609;SDS011;51019;46.090;6.350;2023-05-24T00:24:24;20.92;;;11.85;;
64609;SDS011;51019;46.090;6.350;2023-05-24T00:26:57;22.08;;;11.95;;
64609;SDS011;51019;46.090;6.350;2023-05-24T00:29:27;23.13;;;12.60;;
64609;SDS011;51019;46.090;6.350;2023-05-24T00:31:56;23.83;;;12.27;;
64609;SDS011;51019;46.090;6.350;2023-05-24T00:34:31;22.65;;;11.43;;
64609;SDS011;51019;46.090;6.350;2023-05-24T00:37:08;21.77;;;12.35;;
64609;SDS011;51019;46.090;6.350;2023-05-24T00:39:37;22.92;;;11.15;;
64609;SDS011;51019;46.090;6.350;2023-05-24T00:42:09;20.63;;;10.65;;
64609;SDS011;51019;46.090;6.350;2023-05-24T00:44:42;24.30;;;10.90;;
64609;SDS011;51019;46.090;6.350;2023-05-24T00:47:16;21.27;;;11.05;;
64609;SDS011;51019;46.090;6.350;2023-05-24T00:49:46;20.40;;;11.07;;
64609;SDS011;51019;46.090;6.350;2023-05-24T00:52:17;22.85;;;12.02;;
64609;SDS011;51019;46.090;6.350;2023-05-24T00:54:49;21.50;;;11.23;;
64609;SDS011;51019;46.090;6.350;2023-05-24T00:57:22;19.42;;;11.20;;
64609;SDS011;51019;46.090;6.350;2023-05-24T00:59:51;20.35;;;11.65;;
64609;SDS011;51019;46.090;6.350;2023-05-24T01:02:25;22.40;;;11.88;;
64609;SDS011;51019;46.090;6.350;2023-05-24T01:04:53;18.92;;;10.13;;
64609;SDS011;51019;46.090;6.350;2023-05-24T01:07:28;22.35;;;11.45;;
64609;SDS011;51019;46.090;6.350;2023-05-24T01:10:08;20.95;;;10.30;;
64609;SDS011;51019;46.090;6.350;2023-05-24T01:12:52;20.17;;;10.70;;
64609;SDS011;51019;46.090;6.350;2023-05-24T01:15:29;21.35;;;10.88;;
64609;SDS011;51019;46.090;6.350;2023-05-24T01:20:58;19.35;;;10.48;;
64609;SDS011;51019;46.090;6.350;2023-05-24T01:23:41;18.80;;;10.10;;
64609;SDS011;51019;46.090;6.350;2023-05-24T01:26:18;20.00;;;10.18;;
64609;SDS011;51019;46.090;6.350;2023-05-24T01:29:03;18.80;;;10.20;;
64609;SDS011;51019;46.090;6.350;2023-05-24T01:31:34;19.00;;;10.68;;
64609;SDS011;51019;46.090;6.350;2023-05-24T01:34:12;21.42;;;11.25;;
64609;SDS011;51019;46.090;6.350;2023-05-24T01:36:48;19.05;;;9.75;;
64609;SDS011;51019;46.090;6.350;2023-05-24T01:39:18;21.50;;;10.80;;
64609;SDS011;51019;46.090;6.350;2023-05-24T01:41:48;19.80;;;10.60;;
64609;SDS011;51019;46.090;6.350;2023-05-24T01:44:36;20.48;;;10.75;;
64609;SDS011;51019;46.090;6.350;2023-05-24T01:47:12;19.05;;;10.23;;
64609;SDS011;51019;46.090;6.350;2023-05-24T01:49:53;18.80;;;9.73;;
64609;SDS011;51019;46.090;6.350;2023-05-24T01:52:28;19.67;;;10.27;;
64609;SDS011;51019;46.090;6.350;2023-05-24T01:55:01;21.40;;;10.23;;
64609;SDS011;51019;46.090;6.350;2023-05-24T01:57:34;19.83;;;10.52;;
64609;SDS011;51019;46.090;6.350;2023-05-24T02:00:18;18.58;;;9.55;;
64609;SDS011;51019;46.090;6.350;2023-05-24T02:02:49;18.48;;;9.68;;
64609;SDS011;51019;46.090;6.350;2023-05-24T02:05:20;19.45;;;10.10;;
64609;SDS011;51019;46.090;6.350;2023-05-24T02:07:51;18.90;;;9.68;;
64609;SDS011;51019;46.090;6.350;2023-05-24T02:10:27;19.65;;;9.55;;
64609;SDS011;51019;46.090;6.350;2023-05-24T02:12:55;22.73;;;9.50;;
64609;SDS011;51019;46.090;6.350;2023-05-24T02:15:27;19.55;;;9.10;;
64609;SDS011;51019;46.090;6.350;2023-05-24T02:17:57;18.92;;;9.45;;
64609;SDS011;51019;46.090;6.350;2023-05-24T02:20:27;19.08;;;9.10;;
64609;SDS011;51019;46.090;6.350;2023-05-24T02:23:00;20.20;;;9.68;;
64609;SDS011;51019;46.090;6.350;2023-05-24T02:25:28;20.67;;;10.15;;
64609;SDS011;51019;46.090;6.350;2023-05-24T02:27:58;19.80;;;9.88;;
64609;SDS011;51019;46.090;6.350;2023-05-24T02:30:33;19.98;;;9.68;;
64609;SDS011;51019;46.090;6.350;2023-05-24T02:33:14;18.70;;;9.75;;
64609;SDS011;51019;46.090;6.350;2023-05-24T02:35:45;20.42;;;10.20;;
64609;SDS011;51019;46.090;6.350;2023-05-24T02:38:15;20.45;;;9.65;;
64609;SDS011;51019;46.090;6.350;2023-05-24T02:40:43;18.10;;;9.32;;
64609;SDS011;51019;46.090;6.350;2023-05-24T02:43:17;20.77;;;9.80;;
64609;SDS011;51019;46.090;6.350;2023-05-24T02:45:46;19.13;;;8.68;;
64609;SDS011;51019;46.090;6.350;2023-05-24T02:48:17;20.10;;;9.65;;
64609;SDS011;51019;46.090;6.350;2023-05-24T02:50:47;18.20;;;8.93;;
64609;SDS011;51019;46.090;6.350;2023-05-24T02:53:20;19.95;;;9.77;;
64609;SDS011;51019;46.090;6.350;2023-05-24T02:55:47;20.00;;;9.48;;
64609;SDS011;51019;46.090;6.350;2023-05-24T02:58:16;18.58;;;9.25;;
64609;SDS011;51019;46.090;6.350;2023-05-24T03:00:46;19.50;;;9.48;;
64609;SDS011;51019;46.090;6.350;2023-05-24T03:03:15;17.95;;;9.35;;
64609;SDS011;51019;46.090;6.350;2023-05-24T03:05:43;19.30;;;9.93;;
64609;SDS011;51019;46.090;6.350;2023-05-24T03:08:22;18.20;;;9.00;;
64609;SDS011;51019;46.090;6.350;2023-05-24T03:10:51;19.50;;;9.45;;
64609;SDS011;51019;46.090;6.350;2023-05-24T03:13:32;19.50;;;9.30;;
64609;SDS011;51019;46.090;6.350;2023-05-24T03:16:14;19.15;;;10.15;;
64609;SDS011;51019;46.090;6.350;2023-05-24T03:18:52;18.50;;;9.48;;
64609;SDS011;51019;46.090;6.350;2023-05-24T03:21:22;18.13;;;9.18;;
64609;SDS011;51019;46.090;6.350;2023-05-24T03:23:51;17.92;;;9.70;;
64609;SDS011;51019;46.090;6.350;2023-05-24T03:26:32;19.27;;;9.60;;
64609;SDS011;51019;46.090;6.350;2023-05-24T03:29:00;17.75;;;9.50;;
64609;SDS011;51019;46.090;6.350;2023-05-24T03:31:33;18.85;;;9.18;;
64609;SDS011;51019;46.090;6.350;2023-05-24T03:34:00;17.90;;;9.27;;
64609;SDS011;51019;46.090;6.350;2023-05-24T03:36:28;20.17;;;9.93;;
64609;SDS011;51019;46.090;6.350;2023-05-24T03:38:57;18.23;;;9.90;;
64609;SDS011;51019;46.090;6.350;2023-05-24T03:41:24;16.70;;;9.07;;
64609;SDS011;51019;46.090;6.350;2023-05-24T03:43:56;19.55;;;9.32;;
64609;SDS011;51019;46.090;6.350;2023-05-24T03:46:24;19.08;;;8.75;;
64609;SDS011;51019;46.090;6.350;2023-05-24T03:48:53;17.60;;;9.00;;
64609;SDS011;51019;46.090;6.350;2023-05-24T03:51:23;18.92;;;9.27;;
64609;SDS011;51019;46.090;6.350;2023-05-24T03:53:54;17.60;;;8.27;;
64609;SDS011;51019;46.090;6.350;2023-05-24T03:56:24;18.83;;;9.50;;
64609;SDS011;51019;46.090;6.350;2023-05-24T03:59:05;21.35;;;9.85;;
64609;SDS011;51019;46.090;6.350;2023-05-24T04:01:33;17.55;;;9.40;;
64609;SDS011;51019;46.090;6.350;2023-05-24T04:04:04;21.42;;;10.00;;
64609;SDS011;51019;46.090;6.350;2023-05-24T04:06:35;17.73;;;8.93;;
64609;SDS011;51019;46.090;6.350;2023-05-24T04:09:06;18.83;;;9.60;;
64609;SDS011;51019;46.090;6.350;2023-05-24T04:11:35;18.58;;;9.88;;
64609;SDS011;51019;46.090;6.350;2023-05-24T04:14:03;19.42;;;9.77;;
64609;SDS011;51019;46.090;6.350;2023-05-24T04:16:32;17.92;;;9.48;;
64609;SDS011;51019;46.090;6.350;2023-05-24T04:21:33;19.13;;;9.50;;
64609;SDS011;51019;46.090;6.350;2023-05-24T04:24:01;19.90;;;8.93;;
64609;SDS011;51019;46.090;6.350;2023-05-24T04:26:31;18.20;;;9.65;;
64609;SDS011;51019;46.090;6.350;2023-05-24T04:31:32;17.10;;;8.27;;
64609;SDS011;51019;46.090;6.350;2023-05-24T04:36:34;18.17;;;8.63;;
64609;SDS011;51019;46.090;6.350;2023-05-24T04:39:02;18.70;;;9.40;;
64609;SDS011;51019;46.090;6.350;2023-05-24T04:41:31;17.20;;;9.35;;
64609;SDS011;51019;46.090;6.350;2023-05-24T04:44:00;19.70;;;8.88;;
64609;SDS011;51019;46.090;6.350;2023-05-24T04:46:31;19.05;;;8.82;;
64609;SDS011;51019;46.090;6.350;2023-05-24T04:49:03;19.40;;;8.65;;
64609;SDS011;51019;46.090;6.350;2023-05-24T04:51:35;17.33;;;9.18;;
64609;SDS011;51019;46.090;6.350;2023-05-24T04:54:05;18.77;;;9.40;;
64609;SDS011;51019;46.090;6.350;2023-05-24T04:56:37;19.33;;;9.07;;
64609;SDS011;51019;46.090;6.350;2023-05-24T04:59:13;18.65;;;9.52;;
64609;SDS011;51019;46.090;6.350;2023-05-24T05:01:41;18.27;;;9.32;;
64609;SDS011;51019;46.090;6.350;2023-05-24T05:04:10;18.13;;;9.20;;
64609;SDS011;51019;46.090;6.350;2023-05-24T05:06:51;18.20;;;9.05;;
64609;SDS011;51019;46.090;6.350;2023-05-24T05:09:21;18.58;;;9.65;;
64609;SDS011;51019;46.090;6.350;2023-05-24T05:11:49;19.05;;;9.77;;
64609;SDS011;51019;46.090;6.350;2023-05-24T05:14:17;18.73;;;9.07;;
64609;SDS011;51019;46.090;6.350;2023-05-24T05:16:44;21.23;;;9.27;;
64609;SDS011;51019;46.090;6.350;2023-05-24T05:19:16;19.63;;;9.68;;
64609;SDS011;51019;46.090;6.350;2023-05-24T05:21:47;18.45;;;9.00;;
64609;SDS011;51019;46.090;6.350;2023-05-24T05:24:28;18.95;;;9.90;;
64609;SDS011;51019;46.090;6.350;2023-05-24T05:27:08;18.65;;;9.63;;
64609;SDS011;51019;46.090;6.350;2023-05-24T05:29:36;18.83;;;9.27;;
64609;SDS011;51019;46.090;6.350;2023-05-24T05:32:04;19.80;;;8.85;;
64609;SDS011;51019;46.090;6.350;2023-05-24T05:34:33;18.25;;;9.52;;
64609;SDS011;51019;46.090;6.350;2023-05-24T05:37:07;19.48;;;9.75;;
64609;SDS011;51019;46.090;6.350;2023-05-24T05:39:50;17.45;;;8.77;;
64609;SDS011;51019;46.090;6.350;2023-05-24T05:42:31;17.30;;;8.43;;
64609;SDS011;51019;46.090;6.350;2023-05-24T05:44:59;15.80;;;8.45;;
64609;SDS011;51019;46.090;6.350;2023-05-24T05:47:32;18.10;;;8.07;;
64609;SDS011;51019;46.090;6.350;2023-05-24T05:50:00;18.60;;;8.20;;
64609;SDS011;51019;46.090;6.350;2023-05-24T05:52:41;19.38;;;9.00;;
64609;SDS011;51019;46.090;6.350;2023-05-24T05:55:17;19.77;;;9.10;;
64609;SDS011;51019;46.090;6.350;2023-05-24T05:57:46;19.15;;;8.77;;
64609;SDS011;51019;46.090;6.350;2023-05-24T06:00:15;17.80;;;8.05;;
64609;SDS011;51019;46.090;6.350;2023-05-24T06:02:43;18.27;;;8.93;;
64609;SDS011;51019;46.090;6.350;2023-05-24T06:05:12;18.52;;;8.85;;
64609;SDS011;51019;46.090;6.350;2023-05-24T06:07:42;18.52;;;9.50;;
64609;SDS011;51019;46.090;6.350;2023-05-24T06:10:18;17.77;;;8.82;;
64609;SDS011;51019;46.090;6.350;2023-05-24T06:12:47;17.27;;;8.50;;
64609;SDS011;51019;46.090;6.350;2023-05-24T06:15:15;20.63;;;8.95;;
64609;SDS011;51019;46.090;6.350;2023-05-24T06:17:47;18.33;;;8.88;;
64609;SDS011;51019;46.090;6.350;2023-05-24T06:20:16;19.50;;;9.52;;
64609;SDS011;51019;46.090;6.350;2023-05-24T06:22:47;20.30;;;9.30;;
64609;SDS011;51019;46.090;6.350;2023-05-24T06:25:14;18.67;;;9.23;;
64609;SDS011;51019;46.090;6.350;2023-05-24T06:27:58;18.38;;;9.38;;
64609;SDS011;51019;46.090;6.350;2023-05-24T06:30:27;19.02;;;10.02;;
64609;SDS011;51019;46.090;6.350;2023-05-24T06:32:59;20.08;;;9.60;;
64609;SDS011;51019;46.090;6.350;2023-05-24T06:35:30;19.13;;;9.88;;
64609;SDS011;51019;46.090;6.350;2023-05-24T06:37:59;17.67;;;9.35;;
64609;SDS011;51019;46.090;6.350;2023-05-24T06:40:28;18.83;;;9.68;;
64609;SDS011;51019;46.090;6.350;2023-05-24T06:43:09;20.67;;;9.55;;
64609;SDS011;51019;46.090;6.350;2023-05-24T06:45:38;19.95;;;9.32;;
64609;SDS011;51019;46.090;6.350;2023-05-24T06:48:08;17.27;;;8.63;;
64609;SDS011;51019;46.090;6.350;2023-05-24T06:50:38;18.75;;;8.38;;
64609;SDS011;51019;46.090;6.350;2023-05-24T06:53:07;17.77;;;8.40;;
64609;SDS011;51019;46.090;6.350;2023-05-24T06:55:37;19.80;;;9.43;;
64609;SDS011;51019;46.090;6.350;2023-05-24T06:58:07;19.98;;;8.75;;
64609;SDS011;51019;46.090;6.350;2023-05-24T07:00:38;19.10;;;9.75;;
64609;SDS011;51019;46.090;6.350;2023-05-24T07:03:07;18.92;;;9.27;;
64609;SDS011;51019;46.090;6.350;2023-05-24T07:05:36;18.30;;;9.05;;
64609;SDS011;51019;46.090;6.350;2023-05-24T07:08:05;17.35;;;8.60;;
64609;SDS011;51019;46.090;6.350;2023-05-24T07:10:38;16.10;;;8.13;;
64609;SDS011;51019;46.090;6.350;2023-05-24T07:13:07;19.00;;;8.25;;
64609;SDS011;51019;46.090;6.350;2023-05-24T07:15:37;17.42;;;8.88;;
64609;SDS011;51019;46.090;6.350;2023-05-24T07:18:07;17.25;;;8.60;;
64609;SDS011;51019;46.090;6.350;2023-05-24T07:20:37;18.55;;;8.95;;
64609;SDS011;51019;46.090;6.350;2023-05-24T07:23:04;16.92;;;8.65;;
64609;SDS011;51019;46.090;6.350;2023-05-24T07:25:33;16.90;;;8.48;;
64609;SDS011;51019;46.090;6.350;2023-05-24T07:28:03;17.33;;;8.25;;
64609;SDS011;51019;46.090;6.350;2023-05-24T07:30:32;16.83;;;8.73;;
64609;SDS011;51019;46.090;6.350;2023-05-24T07:33:07;18.45;;;8.38;;
64609;SDS011;51019;46.090;6.350;2023-05-24T07:35:36;18.90;;;8.82;;
64609;SDS011;51019;46.090;6.350;2023-05-24T07:38:04;18.52;;;9.45;;
64609;SDS011;51019;46.090;6.350;2023-05-24T07:40:47;18.88;;;9.25;;
64609;SDS011;51019;46.090;6.350;2023-05-24T07:43:18;18.90;;;9.40;;
64609;SDS011;51019;46.090;6.350;2023-05-24T07:45:48;20.25;;;9.85;;
64609;SDS011;51019;46.090;6.350;2023-05-24T07:48:21;18.27;;;9.80;;
64609;SDS011;51019;46.090;6.350;2023-05-24T07:50:49;18.33;;;9.10;;
64609;SDS011;51019;46.090;6.350;2023-05-24T07:53:17;21.42;;;10.32;;
64609;SDS011;51019;46.090;6.350;2023-05-24T07:55:47;18.67;;;9.48;;
64609;SDS011;51019;46.090;6.350;2023-05-24T07:58:15;19.98;;;9.65;;
64609;SDS011;51019;46.090;6.350;2023-05-24T08:00:46;19.20;;;9.02;;
64609;SDS011;51019;46.090;6.350;2023-05-24T08:03:13;20.15;;;9.45;;
64609;SDS011;51019;46.090;6.350;2023-05-24T08:05:41;19.55;;;8.80;;
64609;SDS011;51019;46.090;6.350;2023-05-24T08:08:10;18.80;;;8.82;;
64609;SDS011;51019;46.090;6.350;2023-05-24T08:10:39;19.55;;;9.75;;
64609;SDS011;51019;46.090;6.350;2023-05-24T08:13:09;22.10;;;9.57;;
64609;SDS011;51019;46.090;6.350;2023-05-24T08:15:42;17.88;;;8.68;;
64609;SDS011;51019;46.090;6.350;2023-05-24T08:18:11;17.30;;;9.05;;
64609;SDS011;51019;46.090;6.350;2023-05-24T08:20:39;18.83;;;9.45;;
64609;SDS011;51019;46.090;6.350;2023-05-24T08:23:10;22.60;;;9.65;;
64609;SDS011;51019;46.090;6.350;2023-05-24T08:25:38;17.73;;;9.05;;
64609;SDS011;51019;46.090;6.350;2023-05-24T08:28:06;21.50;;;10.75;;
64609;SDS011;51019;46.090;6.350;2023-05-24T08:30:35;21.50;;;10.18;;
64609;SDS011;51019;46.090;6.350;2023-05-24T08:33:04;20.23;;;9.98;;
64609;SDS011;51019;46.090;6.350;2023-05-24T08:35:32;21.13;;;9.43;;
64609;SDS011;51019;46.090;6.350;2023-05-24T08:38:03;20.33;;;9.20;;
64609;SDS011;51019;46.090;6.350;2023-05-24T08:40:46;20.55;;;9.40;;
64609;SDS011;51019;46.090;6.350;2023-05-24T08:43:18;21.65;;;10.18;;
64609;SDS011;51019;46.090;6.350;2023-05-24T08:48:21;20.20;;;9.98;;
64609;SDS011;51019;46.090;6.350;2023-05-24T08:50:52;21.48;;;11.57;;
64609;SDS011;51019;46.090;6.350;2023-05-24T08:53:20;18.90;;;9.60;;
64609;SDS011;51019;46.090;6.350;2023-05-24T08:55:47;22.42;;;10.63;;
64609;SDS011;51019;46.090;6.350;2023-05-24T08:58:19;18.95;;;10.05;;
64609;SDS011;51019;46.090;6.350;2023-05-24T09:00:47;20.98;;;10.02;;
64609;SDS011;51019;46.090;6.350;2023-05-24T09:03:15;19.75;;;10.45;;
64609;SDS011;51019;46.090;6.350;2023-05-24T09:05:45;24.00;;;11.05;;
64609;SDS011;51019;46.090;6.350;2023-05-24T09:08:25;19.23;;;9.95;;
64609;SDS011;51019;46.090;6.350;2023-05-24T09:11:07;19.98;;;10.88;;
64609;SDS011;51019;46.090;6.350;2023-05-24T09:13:36;19.35;;;10.15;;
64609;SDS011;51019;46.090;6.350;2023-05-24T09:16:06;22.02;;;10.55;;
64609;SDS011;51019;46.090;6.350;2023-05-24T09:18:34;19.27;;;10.48;;
64609;SDS011;51019;46.090;6.350;2023-05-24T09:21:14;21.95;;;10.13;;
64609;SDS011;51019;46.090;6.350;2023-05-24T09:23:42;19.40;;;10.05;;
64609;SDS011;51019;46.090;6.350;2023-05-24T09:26:12;19.25;;;9.65;;
64609;SDS011;51019;46.090;6.350;2023-05-24T09:28:40;20.08;;;10.45;;
64609;SDS011;51019;46.090;6.350;2023-05-24T09:31:08;19.50;;;10.35;;
64609;SDS011;51019;46.090;6.350;2023-05-24T09:33:37;27.33;;;11.02;;
64609;SDS011;51019;46.090;6.350;2023-05-24T09:36:08;22.15;;;10.85;;
64609;SDS011;51019;46.090;6.350;2023-05-24T09:38:41;24.55;;;11.10;;
64609;SDS011;51019;46.090;6.350;2023-05-24T09:41:08;20.65;;;10.57;;
64609;SDS011;51019;46.090;6.350;2023-05-24T09:43:45;21.92;;;10.60;;
64609;SDS011;51019;46.090;6.350;2023-05-24T09:46:15;21.70;;;11.63;;
64609;SDS011;51019;46.090;6.350;2023-05-24T09:48:54;21.10;;;10.90;;
64609;SDS011;51019;46.090;6.350;2023-05-24T09:51:28;19.33;;;10.48;;
64609;SDS011;51019;46.090;6.350;2023-05-24T09:53:59;22.67;;;11.45;;
64609;SDS011;51019;46.090;6.350;2023-05-24T09:56:32;22.13;;;11.32;;
64609;SDS011;51019;46.090;6.350;2023-05-24T09:59:06;22.98;;;11.43;;
64609;SDS011;51019;46.090;6.350;2023-05-24T10:01:38;21.05;;;11.07;;
64609;SDS011;51019;46.090;6.350;2023-05-24T10:04:06;21.17;;;11.25;;
64609;SDS011;51019;46.090;6.350;2023-05-24T10:06:39;21.90;;;11.30;;
64609;SDS011;51019;46.090;6.350;2023-05-24T10:09:13;19.65;;;10.20;;
64609;SDS011;51019;46.090;6.350;2023-05-24T10:11:42;22.85;;;11.23;;
64609;SDS011;51019;46.090;6.350;2023-05-24T10:14:16;18.95;;;10.40;;
64609;SDS011;51019;46.090;6.350;2023-05-24T10:16:44;19.75;;;11.07;;
64609;SDS011;51019;46.090;6.350;2023-05-24T10:19:12;19.70;;;10.93;;
64609;SDS011;51019;46.090;6.350;2023-05-24T10:21:51;18.55;;;9.60;;
64609;SDS011;51019;46.090;6.350;2023-05-24T10:24:22;25.08;;;11.45;;
64609;SDS011;51019;46.090;6.350;2023-05-24T10:26:51;22.02;;;11.40;;
64609;SDS011;51019;46.090;6.350;2023-05-24T10:29:23;22.42;;;11.77;;
64609;SDS011;51019;46.090;6.350;2023-05-24T10:32:12;20.88;;;10.25;;
64609;SDS011;51019;46.090;6.350;2023-05-24T10:34:44;21.03;;;10.93;;
64609;SDS011;51019;46.090;6.350;2023-05-24T10:37:13;21.00;;;10.98;;
64609;SDS011;51019;46.090;6.350;2023-05-24T10:39:44;21.98;;;11.65;;
64609;SDS011;51019;46.090;6.350;2023-05-24T10:42:12;26.35;;;11.80;;
64609;SDS011;51019;46.090;6.350;2023-05-24T10:44:44;21.83;;;10.48;;
64609;SDS011;51019;46.090;6.350;2023-05-24T10:47:15;19.98;;;10.52;;
64609;SDS011;51019;46.090;6.350;2023-05-24T10:49:47;20.35;;;10.23;;
64609;SDS011;51019;46.090;6.350;2023-05-24T10:55:03;19.17;;;9.65;;
64609;SDS011;51019;46.090;6.350;2023-05-24T10:57:33;18.58;;;9.38;;
64609;SDS011;51019;46.090;6.350;2023-05-24T11:03:00;19.63;;;9.05;;
64609;SDS011;51019;46.090;6.350;2023-05-24T11:05:32;17.75;;;8.73;;
64609;SDS011;51019;46.090;6.350;2023-05-24T11:08:28;16.35;;;8.02;;
64609;SDS011;51019;46.090;6.350;2023-05-24T11:11:01;17.52;;;7.88;;
64609;SDS011;51019;46.090;6.350;2023-05-24T11:13:58;16.75;;;8.05;;
64609;SDS011;51019;46.090;6.350;2023-05-24T11:16:33;18.10;;;8.43;;
64609;SDS011;51019;46.090;6.350;2023-05-24T11:19:11;16.85;;;8.65;;
64609;SDS011;51019;46.090;6.350;2023-05-24T11:21:44;16.80;;;8.15;;
64609;SDS011;51019;46.090;6.350;2023-05-24T11:24:14;16.33;;;8.07;;
64609;SDS011;51019;46.090;6.350;2023-05-24T11:26:44;17.63;;;7.68;;
64609;SDS011;51019;46.090;6.350;2023-05-24T11:29:19;17.00;;;7.97;;
64609;SDS011;51019;46.090;6.350;2023-05-24T11:31:49;16.88;;;8.77;;
64609;SDS011;51019;46.090;6.350;2023-05-24T11:34:31;20.52;;;8.65;;
64609;SDS011;51019;46.090;6.350;2023-05-24T11:37:01;17.90;;;8.50;;
64609;SDS011;51019;46.090;6.350;2023-05-24T11:39:30;17.95;;;8.77;;
64609;SDS011;51019;46.090;6.350;2023-05-24T11:42:02;17.50;;;8.65;;
64609;SDS011;51019;46.090;6.350;2023-05-24T11:47:05;18.90;;;9.05;;
64609;SDS011;51019;46.090;6.350;2023-05-24T11:49:36;18.35;;;8.93;;
64609;SDS011;51019;46.090;6.350;2023-05-24T11:52:04;16.92;;;8.52;;
64609;SDS011;51019;46.090;6.350;2023-05-24T11:54:33;18.92;;;8.43;;
64609;SDS011;51019;46.090;6.350;2023-05-24T11:57:04;17.65;;;8.02;;
64609;SDS011;51019;46.090;6.350;2023-05-24T11:59:32;16.88;;;8.23;;
64609;SDS011;51019;46.090;6.350;2023-05-24T12:02:04;16.95;;;7.40;;
64609;SDS011;51019;46.090;6.350;2023-05-24T12:04:36;16.77;;;7.15;;
64609;SDS011;51019;46.090;6.350;2023-05-24T12:07:04;15.00;;;6.10;;
64609;SDS011;51019;46.090;6.350;2023-05-24T12:09:37;18.17;;;6.63;;
64609;SDS011;51019;46.090;6.350;2023-05-24T12:12:09;14.65;;;6.68;;
64609;SDS011;51019;46.090;6.350;2023-05-24T12:14:37;15.52;;;6.53;;
64609;SDS011;51019;46.090;6.350;2023-05-24T12:17:12;13.90;;;6.20;;
64609;SDS011;51019;46.090;6.350;2023-05-24T12:19:53;14.75;;;7.13;;
64609;SDS011;51019;46.090;6.350;2023-05-24T12:22:26;15.43;;;6.40;;
64609;SDS011;51019;46.090;6.350;2023-05-24T12:24:58;15.25;;;6.53;;
64609;SDS011;51019;46.090;6.350;2023-05-24T12:27:27;15.30;;;7.32;;
64609;SDS011;51019;46.090;6.350;2023-05-24T12:30:04;16.67;;;7.32;;
64609;SDS011;51019;46.090;6.350;2023-05-24T12:32:36;16.30;;;7.15;;
64609;SDS011;51019;46.090;6.350;2023-05-24T12:35:05;15.38;;;7.15;;
64609;SDS011;51019;46.090;6.350;2023-05-24T12:37:33;15.50;;;7.85;;
64609;SDS011;51019;46.090;6.350;2023-05-24T12:40:15;17.33;;;7.63;;
64609;SDS011;51019;46.090;6.350;2023-05-24T12:42:44;15.43;;;7.32;;
64609;SDS011;51019;46.090;6.350;2023-05-24T12:45:23;14.63;;;7.05;;
64609;SDS011;51019;46.090;6.350;2023-05-24T12:47:57;19.85;;;7.78;;
64609;SDS011;51019;46.090;6.350;2023-05-24T12:50:29;16.42;;;7.15;;
64609;SDS011;51019;46.090;6.350;2023-05-24T12:52:58;16.33;;;7.97;;
64609;SDS011;51019;46.090;6.350;2023-05-24T12:55:26;16.00;;;7.00;;
64609;SDS011;51019;46.090;6.350;2023-05-24T12:57:56;17.60;;;7.00;;
64609;SDS011;51019;46.090;6.350;2023-05-24T13:00:27;15.97;;;6.57;;
64609;SDS011;51019;46.090;6.350;2023-05-24T13:03:02;19.15;;;7.72;;
64609;SDS011;51019;46.090;6.350;2023-05-24T13:05:30;16.50;;;7.75;;
64609;SDS011;51019;46.090;6.350;2023-05-24T13:07:57;16.20;;;6.25;;
64609;SDS011;51019;46.090;6.350;2023-05-24T13:10:25;13.48;;;6.57;;
64609;SDS011;51019;46.090;6.350;2023-05-24T13:13:08;16.17;;;6.50;;
64609;SDS011;51019;46.090;6.350;2023-05-24T13:15:38;14.25;;;6.60;;
64609;SDS011;51019;46.090;6.350;2023-05-24T13:18:10;14.85;;;6.75;;
64609;SDS011;51019;46.090;6.350;2023-05-24T13:20:37;15.25;;;6.93;;
64609;SDS011;51019;46.090;6.350;2023-05-24T13:23:06;18.20;;;6.60;;
64609;SDS011;51019;46.090;6.350;2023-05-24T13:25:37;17.08;;;7.38;;
64609;SDS011;51019;46.090;6.350;2023-05-24T13:28:05;16.35;;;6.65;;
64609;SDS011;51019;46.090;6.350;2023-05-24T13:30:34;17.40;;;6.93;;
64609;SDS011;51019;46.090;6.350;2023-05-24T13:33:01;14.90;;;6.90;;
64609;SDS011;51019;46.090;6.350;2023-05-24T13:35:30;16.17;;;6.45;;
64609;SDS011;51019;46.090;6.350;2023-05-24T13:37:57;19.27;;;6.65;;
64609;SDS011;51019;46.090;6.350;2023-05-24T13:40:25;18.42;;;6.72;;
64609;SDS011;51019;46.090;6.350;2023-05-24T13:42:53;14.73;;;5.63;;
64609;SDS011;51019;46.090;6.350;2023-05-24T13:45:23;15.70;;;6.30;;
64609;SDS011;51019;46.090;6.350;2023-05-24T13:47:54;13.43;;;6.13;;
64609;SDS011;51019;46.090;6.350;2023-05-24T13:50:27;14.43;;;6.20;;
64609;SDS011;51019;46.090;6.350;2023-05-24T13:53:03;15.02;;;5.82;;
64609;SDS011;51019;46.090;6.350;2023-05-24T13:55:39;13.93;;;5.35;;
64609;SDS011;51019;46.090;6.350;2023-05-24T13:58:07;13.82;;;5.80;;
64609;SDS011;51019;46.090;6.350;2023-05-24T14:00:38;12.88;;;5.00;;
64609;SDS011;51019;46.090;6.350;2023-05-24T14:03:06;13.98;;;5.82;;
64609;SDS011;51019;46.090;6.350;2023-05-24T14:06:01;13.00;;;5.32;;
64609;SDS011;51019;46.090;6.350;2023-05-24T14:08:30;16.77;;;5.60;;
64609;SDS011;51019;46.090;6.350;2023-05-24T14:10:57;13.43;;;5.20;;
64609;SDS011;51019;46.090;6.350;2023-05-24T14:13:25;13.35;;;5.47;;
64609;SDS011;51019;46.090;6.350;2023-05-24T14:15:56;13.27;;;5.40;;
64609;SDS011;51019;46.090;6.350;2023-05-24T14:18:24;12.15;;;5.10;;
64609;SDS011;51019;46.090;6.350;2023-05-24T14:21:18;14.48;;;5.85;;
64609;SDS011;51019;46.090;6.350;2023-05-24T14:23:47;13.40;;;5.38;;
64609;SDS011;51019;46.090;6.350;2023-05-24T14:26:17;12.32;;;5.32;;
64609;SDS011;51019;46.090;6.350;2023-05-24T14:28:46;17.20;;;5.68;;
64609;SDS011;51019;46.090;6.350;2023-05-24T14:31:15;14.20;;;5.95;;
64609;SDS011;51019;46.090;6.350;2023-05-24T14:33:42;16.02;;;6.45;;
64609;SDS011;51019;46.090;6.350;2023-05-24T14:36:10;14.93;;;5.63;;
64609;SDS011;51019;46.090;6.350;2023-05-24T14:39:05;14.27;;;5.85;;
64609;SDS011;51019;46.090;6.350;2023-05-24T14:41:34;12.85;;;5.60;;
64609;SDS011;51019;46.090;6.350;2023-05-24T14:44:29;14.32;;;5.22;;
64609;SDS011;51019;46.090;6.350;2023-05-24T14:47:03;13.98;;;5.40;;
64609;SDS011;51019;46.090;6.350;2023-05-24T14:49:38;12.60;;;5.65;;
64609;SDS011;51019;46.090;6.350;2023-05-24T14:52:07;16.45;;;6.05;;
64609;SDS011;51019;46.090;6.350;2023-05-24T14:54:35;13.90;;;5.82;;
64609;SDS011;51019;46.090;6.350;2023-05-24T14:57:02;14.65;;;6.47;;
64609;SDS011;51019;46.090;6.350;2023-05-24T14:59:33;15.98;;;5.80;;
64609;SDS011;51019;46.090;6.350;2023-05-24T15:02:00;13.75;;;6.15;;
64609;SDS011;51019;46.090;6.350;2023-05-24T15:04:29;13.43;;;5.82;;
64609;SDS011;51019;46.090;6.350;2023-05-24T15:06:56;15.32;;;5.97;;
64609;SDS011;51019;46.090;6.350;2023-05-24T15:09:27;14.48;;;5.68;;
64609;SDS011;51019;46.090;6.350;2023-05-24T15:11:54;15.07;;;6.07;;
64609;SDS011;51019;46.090;6.350;2023-05-24T15:14:22;16.80;;;6.40;;
64609;SDS011;51019;46.090;6.350;2023-05-24T15:16:53;15.13;;;6.43;;
64609;SDS011;51019;46.090;6.350;2023-05-24T15:19:34;14.57;;;6.05;;